Terminal Aerodrome Forecast
Issued by NWS Bismarck, ND

Home | Current Version | Previous Version | Graphics & Text | Print | Product List | Glossary On
Versions: 1 2 3 4 5 6 7 8 9 10 11 12 13 14 15
360
FTUS43 KBIS 020527
TAFISN
TAF
KISN 020527Z 0206/0306 25005KT P6SM BKN070
     FM021400 31007KT P6SM SCT070
     FM021800 01012KT P6SM FEW180
     FM030100 02007KT P6SM SKC=

USA.gov is the U.S. government's official web portal to all federal, state and local government web resources and services.